Terminal Aerodrome Forecast
Issued by NWS

Home | Current Version | Previous Version | Text Only | Print | Product List | Glossary On
Versions: 1 2 3 4 5 6 7 8 9 10 11 12 13 14
000
FTUS43 KGRB 131151
TAFATW
TAF
KATW 131151Z 1312/1412 33003KT P6SM SCT120 OVC250
     FM132100 VRB03KT P6SM BKN100
     FM140400 VRB03KT P6SM -SHSN OVC027
     FM141000 24003KT P6SM SCT027 BKN040=

USA.gov is the U.S. government's official web portal to all federal, state and local government web resources and services.